Time;durP1;ratioP1;P1;durP2;ratioP2;P2;SDS_P1;SDS_P2;PMS_P1;PMS_P2;Temp;Humidity;BMP_temperature;BMP_pressure;BME280_temperature;BME280_humidity;BME280_pressure;Samples;Min_cycle;Max_cycle;Signal;HPM_P1;HPM_P2
2021/10/06 00:01:55;;;;;;;4.82;3.20;;;;;;;;;;5036901;28;20326;-76
2021/10/06 00:04:21;;;;;;;7.35;3.03;;;;;;;;;;5034491;28;20185;-75
2021/10/06 00:06:47;;;;;;;10.73;3.10;;;;;;;;;;5044505;28;20174;-75
2021/10/06 00:09:12;;;;;;;6.30;3.03;;;;;;;;;;5029860;28;20309;-75
2021/10/06 00:11:39;;;;;;;5.85;3.25;;;;;;;;;;5039168;28;20218;-75
2021/10/06 00:14:05;;;;;;;6.65;3.17;;;;;;;;;;5031122;28;20185;-75
2021/10/06 00:16:31;;;;;;;7.03;3.50;;;;;;;;;;5035745;28;20204;-76
2021/10/06 00:18:56;;;;;;;9.10;3.38;;;;;;;;;;5031250;28;20204;-76
2021/10/06 00:21:22;;;;;;;5.65;3.03;;;;;;;;;;5039207;28;20398;-76
2021/10/06 00:23:47;;;;;;;9.00;3.72;;;;;;;;;;5029088;28;20181;-76
2021/10/06 00:26:12;;;;;;;7.30;3.17;;;;;;;;;;5044026;28;20184;-76
2021/10/06 00:28:38;;;;;;;8.00;3.67;;;;;;;;;;5031551;28;20185;-76
2021/10/06 00:31:03;;;;;;;5.80;3.33;;;;;;;;;;5040448;28;20202;-75
2021/10/06 00:33:29;;;;;;;5.55;2.70;;;;;;;;;;5035469;28;20217;-76
2021/10/06 00:35:56;;;;;;;6.15;3.00;;;;;;;;;;5036586;28;20673;-76
2021/10/06 00:38:22;;;;;;;8.05;3.10;;;;;;;;;;5037113;28;20205;-76
2021/10/06 00:40:49;;;;;;;5.10;2.60;;;;;;;;;;5035793;28;20182;-75
2021/10/06 00:43:14;;;;;;;4.00;2.30;;;;;;;;;;5040132;28;20268;-75
2021/10/06 00:45:40;;;;;;;4.80;2.50;;;;;;;;;;5035540;28;20649;-75
2021/10/06 00:48:05;;;;;;;4.45;2.60;;;;;;;;;;5037258;28;20531;-75
2021/10/06 00:50:31;;;;;;;5.70;2.63;;;;;;;;;;5034685;28;20219;-76
2021/10/06 00:52:56;;;;;;;7.20;2.63;;;;;;;;;;5041359;28;20264;-76
2021/10/06 00:55:22;;;;;;;5.15;2.65;;;;;;;;;;5029830;28;20225;-75
2021/10/06 00:57:47;;;;;;;5.78;2.95;;;;;;;;;;5038911;28;20208;-75
2021/10/06 01:00:13;;;;;;;4.72;2.75;;;;;;;;;;5034365;28;20664;-76
2021/10/06 01:02:38;;;;;;;5.70;3.22;;;;;;;;;;5042412;28;20182;-75
2021/10/06 01:05:06;;;;;;;8.38;3.53;;;;;;;;;;5039303;28;20588;-76
2021/10/06 01:07:33;;;;;;;7.03;4.30;;;;;;;;;;5032411;28;20227;-75
2021/10/06 01:10:00;;;;;;;8.47;4.83;;;;;;;;;;5005640;28;1047698;-75
2021/10/06 01:12:26;;;;;;;8.07;4.13;;;;;;;;;;5027469;28;20189;-75
2021/10/06 01:14:52;;;;;;;9.63;5.00;;;;;;;;;;5036936;28;20579;-76
2021/10/06 01:17:17;;;;;;;9.50;5.22;;;;;;;;;;5032023;28;20637;-75
2021/10/06 01:19:43;;;;;;;7.30;4.97;;;;;;;;;;5041417;28;20264;-75
2021/10/06 01:22:08;;;;;;;10.65;5.50;;;;;;;;;;5025749;28;20281;-75
2021/10/06 01:24:34;;;;;;;8.80;6.05;;;;;;;;;;5038071;28;20190;-75
2021/10/06 01:26:59;;;;;;;11.70;5.72;;;;;;;;;;5029906;28;20190;-75
2021/10/06 01:29:28;;;;;;;11.73;5.78;;;;;;;;;;5038681;28;20202;-75
2021/10/06 01:31:53;;;;;;;10.68;5.28;;;;;;;;;;5031674;28;20209;-75
2021/10/06 01:34:21;;;;;;;7.82;5.22;;;;;;;;;;5039757;28;20575;-75
2021/10/06 01:36:48;;;;;;;11.55;5.35;;;;;;;;;;5041758;28;20205;-76
2021/10/06 01:39:15;;;;;;;7.32;5.15;;;;;;;;;;5028114;28;20190;-74
2021/10/06 01:41:40;;;;;;;11.40;5.43;;;;;;;;;;5043718;28;20190;-74
2021/10/06 01:44:12;;;;;;;10.35;5.63;;;;;;;;;;5031149;28;20690;-75
2021/10/06 01:46:37;;;;;;;10.02;4.60;;;;;;;;;;5041471;28;20386;-74
2021/10/06 01:49:02;;;;;;;9.65;4.25;;;;;;;;;;5029802;28;20281;-75
2021/10/06 01:51:28;;;;;;;9.77;4.55;;;;;;;;;;5037568;28;20189;-75
2021/10/06 01:53:53;;;;;;;9.35;3.97;;;;;;;;;;5033016;28;20204;-74
2021/10/06 01:56:18;;;;;;;8.90;4.80;;;;;;;;;;5039116;28;20182;-74
2021/10/06 01:58:47;;;;;;;9.05;5.13;;;;;;;;;;5034050;28;20243;-75
2021/10/06 02:01:13;;;;;;;12.82;5.32;;;;;;;;;;5038385;28;20641;-74
2021/10/06 02:03:39;;;;;;;13.20;4.85;;;;;;;;;;5035838;28;20178;-76
2021/10/06 02:06:04;;;;;;;9.25;4.18;;;;;;;;;;5046422;28;20243;-75
2021/10/06 02:08:29;;;;;;;9.73;4.18;;;;;;;;;;5040354;28;20584;-75
2021/10/06 02:10:55;;;;;;;7.72;3.60;;;;;;;;;;5035812;28;20209;-75
2021/10/06 02:13:20;;;;;;;6.88;3.15;;;;;;;;;;5040254;28;20238;-75
2021/10/06 02:15:47;;;;;;;10.50;3.40;;;;;;;;;;5036040;28;20559;-76
2021/10/06 02:18:13;;;;;;;6.78;3.45;;;;;;;;;;5044034;28;20278;-76
2021/10/06 02:20:38;;;;;;;6.40;3.35;;;;;;;;;;5034697;28;20201;-75
2021/10/06 02:23:04;;;;;;;8.98;3.53;;;;;;;;;;5042849;28;20678;-74
2021/10/06 02:25:29;;;;;;;7.15;2.85;;;;;;;;;;5036084;28;20250;-75
2021/10/06 02:27:55;;;;;;;11.32;3.05;;;;;;;;;;5040543;28;20182;-75
2021/10/06 02:30:22;;;;;;;10.93;3.40;;;;;;;;;;5034703;28;20308;-75
2021/10/06 02:32:48;;;;;;;8.80;2.97;;;;;;;;;;5038427;28;20276;-76
2021/10/06 02:35:13;;;;;;;9.63;3.13;;;;;;;;;;5030743;28;20214;-75
2021/10/06 02:37:40;;;;;;;9.80;3.20;;;;;;;;;;5048255;28;20239;-75
2021/10/06 02:40:08;;;;;;;6.47;3.10;;;;;;;;;;5040911;28;20284;-75
2021/10/06 02:42:33;;;;;;;6.72;2.63;;;;;;;;;;5037050;28;21224;-76
2021/10/06 02:44:59;;;;;;;11.68;3.10;;;;;;;;;;5038120;28;21154;-75
2021/10/06 02:47:24;;;;;;;10.27;3.58;;;;;;;;;;5033073;28;20208;-75
2021/10/06 02:49:50;;;;;;;7.57;2.88;;;;;;;;;;5043596;28;20213;-74
2021/10/06 02:52:16;;;;;;;13.77;3.20;;;;;;;;;;5037514;28;20663;-74
2021/10/06 02:54:42;;;;;;;8.07;2.65;;;;;;;;;;5038813;28;20665;-75
2021/10/06 02:57:07;;;;;;;5.70;2.53;;;;;;;;;;5036495;28;20592;-74
2021/10/06 02:59:34;;;;;;;7.82;3.55;;;;;;;;;;5040597;28;20261;-75
2021/10/06 03:01:59;;;;;;;9.95;3.05;;;;;;;;;;5028909;28;20186;-76
2021/10/06 03:04:25;;;;;;;9.70;3.40;;;;;;;;;;5037486;28;23109;-74
2021/10/06 03:06:51;;;;;;;7.13;3.13;;;;;;;;;;5029232;28;20717;-74
2021/10/06 03:09:16;;;;;;;10.70;3.35;;;;;;;;;;5038533;28;20226;-73
2021/10/06 03:11:42;;;;;;;5.63;3.47;;;;;;;;;;5035167;28;20311;-74
2021/10/06 03:14:08;;;;;;;11.48;3.20;;;;;;;;;;5029776;28;20247;-74
2021/10/06 03:16:33;;;;;;;14.10;3.47;;;;;;;;;;5039436;28;20582;-74
2021/10/06 03:18:59;;;;;;;10.57;3.35;;;;;;;;;;5029560;28;20189;-76
2021/10/06 03:21:24;;;;;;;10.85;3.47;;;;;;;;;;5036768;28;20660;-75
2021/10/06 03:23:49;;;;;;;14.65;3.70;;;;;;;;;;5033744;28;20249;-75
2021/10/06 03:26:15;;;;;;;10.25;3.40;;;;;;;;;;5037099;28;20196;-75
2021/10/06 03:28:40;;;;;;;8.80;3.38;;;;;;;;;;5030903;28;20185;-74
2021/10/06 03:31:06;;;;;;;13.65;3.45;;;;;;;;;;5041616;28;20216;-75
2021/10/06 03:33:31;;;;;;;11.55;3.75;;;;;;;;;;5031866;28;20694;-75
2021/10/06 03:35:56;;;;;;;9.18;3.15;;;;;;;;;;5041437;28;20347;-76
2021/10/06 03:38:22;;;;;;;7.22;3.45;;;;;;;;;;5034072;28;20641;-74
2021/10/06 03:40:48;;;;;;;13.13;3.50;;;;;;;;;;5042374;28;20652;-75
2021/10/06 03:43:14;;;;;;;12.20;3.85;;;;;;;;;;5041362;28;20190;-75
2021/10/06 03:45:39;;;;;;;17.05;4.45;;;;;;;;;;5029449;28;20196;-76
2021/10/06 03:48:05;;;;;;;11.77;3.80;;;;;;;;;;5043267;28;20181;-75
2021/10/06 03:50:30;;;;;;;11.40;3.85;;;;;;;;;;5033005;28;20612;-74
2021/10/06 03:52:56;;;;;;;12.85;3.83;;;;;;;;;;5040907;28;20197;-74
2021/10/06 03:55:22;;;;;;;11.35;3.70;;;;;;;;;;5031907;28;20193;-74
2021/10/06 03:57:47;;;;;;;11.80;4.55;;;;;;;;;;5042230;28;20212;-73
2021/10/06 04:00:13;;;;;;;11.02;4.10;;;;;;;;;;5032071;28;20219;-74
2021/10/06 04:02:39;;;;;;;10.18;4.43;;;;;;;;;;5039131;28;20205;-77
2021/10/06 04:05:06;;;;;;;11.13;5.05;;;;;;;;;;5032048;28;20213;-75
2021/10/06 04:07:31;;;;;;;9.13;4.72;;;;;;;;;;5044734;28;20193;-73
2021/10/06 04:09:57;;;;;;;11.07;4.38;;;;;;;;;;5032376;28;20225;-77
2021/10/06 04:12:22;;;;;;;8.38;4.68;;;;;;;;;;5034554;28;20650;-75
2021/10/06 04:14:48;;;;;;;11.88;4.55;;;;;;;;;;5038464;28;20196;-75
2021/10/06 04:17:13;;;;;;;10.38;4.53;;;;;;;;;;5032968;28;20185;-75
2021/10/06 04:19:38;;;;;;;12.77;4.70;;;;;;;;;;5036676;28;20194;-74
2021/10/06 04:22:04;;;;;;;10.10;4.93;;;;;;;;;;5030420;28;20188;-76
2021/10/06 04:24:29;;;;;;;7.70;4.43;;;;;;;;;;5039184;28;20210;-75
2021/10/06 04:26:54;;;;;;;13.63;4.43;;;;;;;;;;5034674;28;20280;-75
2021/10/06 04:29:20;;;;;;;15.23;5.38;;;;;;;;;;5038587;28;20234;-74
2021/10/06 04:31:45;;;;;;;12.93;5.07;;;;;;;;;;5031658;28;20197;-76
2021/10/06 04:34:10;;;;;;;11.20;5.18;;;;;;;;;;5039545;28;20216;-76
2021/10/06 04:36:36;;;;;;;12.55;4.65;;;;;;;;;;5030222;28;20209;-75
2021/10/06 04:39:01;;;;;;;12.15;5.28;;;;;;;;;;5036342;28;20181;-76
2021/10/06 04:41:27;;;;;;;14.63;5.30;;;;;;;;;;5034234;28;20185;-76
2021/10/06 04:43:52;;;;;;;16.38;5.85;;;;;;;;;;5034136;28;20186;-77
2021/10/06 04:46:19;;;;;;;11.07;5.60;;;;;;;;;;5039360;28;20272;-78
2021/10/06 04:48:47;;;;;;;10.20;5.63;;;;;;;;;;5032561;28;20233;-76
2021/10/06 04:51:14;;;;;;;12.88;5.70;;;;;;;;;;5034395;28;20212;-78
2021/10/06 04:53:39;;;;;;;10.50;5.70;;;;;;;;;;5035559;28;20188;-79
2021/10/06 04:56:05;;;;;;;14.98;5.25;;;;;;;;;;5038361;28;20189;-79
2021/10/06 04:58:30;;;;;;;10.32;5.53;;;;;;;;;;5031903;28;20208;-78
2021/10/06 05:00:55;;;;;;;14.20;5.63;;;;;;;;;;5037551;28;20206;-78
2021/10/06 05:03:21;;;;;;;16.02;5.82;;;;;;;;;;5033147;28;20198;-78
2021/10/06 05:05:46;;;;;;;11.00;5.25;;;;;;;;;;5042245;28;20181;-79
2021/10/06 05:08:12;;;;;;;16.15;5.72;;;;;;;;;;5037116;28;20196;-78
2021/10/06 05:10:37;;;;;;;12.93;5.28;;;;;;;;;;5038089;28;20288;-77
2021/10/06 05:13:03;;;;;;;13.27;4.88;;;;;;;;;;5038102;28;20188;-78
2021/10/06 05:15:29;;;;;;;10.07;5.15;;;;;;;;;;5034207;28;20189;-78
2021/10/06 05:17:54;;;;;;;12.95;4.95;;;;;;;;;;5041568;28;20181;-79
2021/10/06 05:20:20;;;;;;;11.10;5.65;;;;;;;;;;5025911;28;20330;-80
2021/10/06 05:22:45;;;;;;;12.35;5.18;;;;;;;;;;5042390;28;20762;-80
2021/10/06 05:25:10;;;;;;;13.07;4.30;;;;;;;;;;5030785;28;20181;-78
2021/10/06 05:27:36;;;;;;;10.60;3.55;;;;;;;;;;5040843;28;20188;-79
2021/10/06 05:30:06;;;;;;;5.38;3.22;;;;;;;;;;5027886;28;20202;-78
2021/10/06 05:32:31;;;;;;;7.15;3.05;;;;;;;;;;5039634;28;20524;-78
2021/10/06 05:34:57;;;;;;;8.15;2.97;;;;;;;;;;5040552;28;20185;-78
2021/10/06 05:37:22;;;;;;;4.57;2.60;;;;;;;;;;5045660;28;20213;-78
2021/10/06 05:39:48;;;;;;;4.28;2.65;;;;;;;;;;5036345;28;20177;-77
2021/10/06 05:42:13;;;;;;;4.15;2.28;;;;;;;;;;5044809;28;20223;-78
2021/10/06 05:44:38;;;;;;;5.63;2.47;;;;;;;;;;5038055;28;20174;-78
2021/10/06 05:47:04;;;;;;;5.47;2.53;;;;;;;;;;5039424;28;20273;-78
2021/10/06 05:49:29;;;;;;;7.05;3.20;;;;;;;;;;5043611;28;20178;-79
2021/10/06 05:51:55;;;;;;;7.22;3.40;;;;;;;;;;5036079;28;20189;-79
2021/10/06 05:54:20;;;;;;;6.90;4.00;;;;;;;;;;5039640;28;20275;-79
2021/10/06 05:56:46;;;;;;;7.95;4.53;;;;;;;;;;5034210;28;20228;-79
2021/10/06 05:59:11;;;;;;;8.82;4.25;;;;;;;;;;5040352;28;20216;-78
2021/10/06 06:01:36;;;;;;;11.40;4.55;;;;;;;;;;5031864;28;20527;-79
2021/10/06 06:04:02;;;;;;;8.07;4.65;;;;;;;;;;5041684;28;20181;-79
2021/10/06 06:06:27;;;;;;;13.18;4.93;;;;;;;;;;5034400;28;20182;-78
2021/10/06 06:08:53;;;;;;;12.10;4.85;;;;;;;;;;5042826;28;20222;-78
2021/10/06 06:11:20;;;;;;;10.02;4.90;;;;;;;;;;5035257;28;22467;-78
2021/10/06 06:13:46;;;;;;;9.65;4.63;;;;;;;;;;5041756;28;20214;-77
2021/10/06 06:16:11;;;;;;;15.63;4.60;;;;;;;;;;5041836;28;20243;-78
2021/10/06 06:18:36;;;;;;;11.68;4.60;;;;;;;;;;5039846;28;20196;-79
2021/10/06 06:21:02;;;;;;;11.50;4.40;;;;;;;;;;5045655;28;20173;-78
2021/10/06 06:23:29;;;;;;;8.73;4.82;;;;;;;;;;5035678;28;20280;-78
2021/10/06 06:25:55;;;;;;;9.40;5.00;;;;;;;;;;5044406;28;20205;-77
2021/10/06 06:28:20;;;;;;;12.27;4.32;;;;;;;;;;5036536;28;20197;-78
2021/10/06 06:30:45;;;;;;;9.73;4.40;;;;;;;;;;5045590;28;20245;-79
2021/10/06 06:33:11;;;;;;;11.32;4.85;;;;;;;;;;5036523;28;20205;-78
2021/10/06 06:35:36;;;;;;;12.30;4.63;;;;;;;;;;5043214;28;20727;-79
2021/10/06 06:38:02;;;;;;;9.88;4.68;;;;;;;;;;5033102;28;20208;-79
2021/10/06 06:40:27;;;;;;;12.63;4.63;;;;;;;;;;5037811;28;20181;-79
2021/10/06 06:42:53;;;;;;;8.43;4.32;;;;;;;;;;5028948;28;20208;-77
2021/10/06 06:45:19;;;;;;;10.38;4.35;;;;;;;;;;5044452;28;20233;-78
2021/10/06 06:47:44;;;;;;;10.23;4.57;;;;;;;;;;5045968;28;20217;-79
2021/10/06 06:50:12;;;;;;;12.68;4.65;;;;;;;;;;5041719;28;21565;-77
2021/10/06 06:52:38;;;;;;;12.88;3.75;;;;;;;;;;5044128;28;20211;-78
2021/10/06 06:55:04;;;;;;;11.40;4.72;;;;;;;;;;5033763;28;20724;-77
2021/10/06 06:57:30;;;;;;;9.93;4.13;;;;;;;;;;5045933;28;20242;-77
2021/10/06 06:59:55;;;;;;;10.98;4.30;;;;;;;;;;5036719;28;20664;-78
2021/10/06 07:02:20;;;;;;;10.93;3.78;;;;;;;;;;5043747;28;20221;-77
2021/10/06 07:04:46;;;;;;;9.15;3.50;;;;;;;;;;5041018;28;20246;-76
2021/10/06 07:07:14;;;;;;;11.80;3.67;;;;;;;;;;5042564;28;20196;-78
2021/10/06 07:09:47;;;;;;;9.68;3.60;;;;;;;;;;5037312;28;20225;-77
2021/10/06 07:12:13;;;;;;;13.60;3.63;;;;;;;;;;5042255;28;20229;-76
2021/10/06 07:14:39;;;;;;;10.38;3.88;;;;;;;;;;5047679;28;20182;-76
2021/10/06 07:17:04;;;;;;;11.10;3.47;;;;;;;;;;5040343;28;20611;-76
2021/10/06 07:19:29;;;;;;;9.45;3.30;;;;;;;;;;5037204;28;20633;-74
2021/10/06 07:21:55;;;;;;;11.55;3.50;;;;;;;;;;5038847;28;20186;-77
2021/10/06 07:24:20;;;;;;;9.27;3.20;;;;;;;;;;5043469;28;20641;-76
2021/10/06 07:26:45;;;;;;;7.95;3.28;;;;;;;;;;5032725;28;20193;-74
2021/10/06 07:29:11;;;;;;;6.38;2.83;;;;;;;;;;5038071;28;20194;-77
2021/10/06 07:31:37;;;;;;;7.57;3.03;;;;;;;;;;5029371;28;20659;-76
2021/10/06 07:34:03;;;;;;;5.28;3.13;;;;;;;;;;5039994;28;20201;-76
2021/10/06 07:36:29;;;;;;;6.22;3.53;;;;;;;;;;5028875;28;20205;-76
2021/10/06 07:38:56;;;;;;;6.45;3.63;;;;;;;;;;5034807;28;20246;-76
2021/10/06 07:41:21;;;;;;;7.38;3.25;;;;;;;;;;5029662;28;20582;-77
2021/10/06 07:43:46;;;;;;;8.52;3.38;;;;;;;;;;5038211;28;20205;-76
2021/10/06 07:46:13;;;;;;;5.40;2.78;;;;;;;;;;5036072;28;20181;-77
2021/10/06 07:48:38;;;;;;;8.05;2.70;;;;;;;;;;5042406;28;20181;-77
2021/10/06 07:51:04;;;;;;;4.18;2.60;;;;;;;;;;5033362;28;20262;-77
2021/10/06 07:53:29;;;;;;;6.22;2.80;;;;;;;;;;5040338;28;20198;-76
2021/10/06 07:55:54;;;;;;;7.43;2.67;;;;;;;;;;5047306;28;20196;-76
2021/10/06 07:58:20;;;;;;;6.40;2.90;;;;;;;;;;5033852;28;20210;-77
2021/10/06 08:00:45;;;;;;;5.70;2.88;;;;;;;;;;5044917;28;20188;-76
2021/10/06 08:03:11;;;;;;;4.90;2.42;;;;;;;;;;5034380;28;20865;-76
2021/10/06 08:05:36;;;;;;;5.18;2.20;;;;;;;;;;5038346;28;20629;-77
2021/10/06 08:08:02;;;;;;;4.85;2.35;;;;;;;;;;5037747;28;20235;-76
2021/10/06 08:10:27;;;;;;;5.20;2.03;;;;;;;;;;5029386;28;20206;-77
2021/10/06 08:12:52;;;;;;;3.05;1.92;;;;;;;;;;5031410;28;20192;-76
2021/10/06 08:15:18;;;;;;;4.40;2.55;;;;;;;;;;5040128;28;20162;-76
2021/10/06 08:17:43;;;;;;;4.35;1.90;;;;;;;;;;5031618;28;20189;-75
2021/10/06 08:20:09;;;;;;;5.22;2.30;;;;;;;;;;5044786;28;20524;-76
2021/10/06 08:22:34;;;;;;;4.35;2.00;;;;;;;;;;5034850;28;20276;-76
2021/10/06 08:25:00;;;;;;;7.32;2.60;;;;;;;;;;5037491;28;20629;-77
2021/10/06 08:27:25;;;;;;;4.03;2.53;;;;;;;;;;5039369;28;20189;-77
2021/10/06 08:29:51;;;;;;;7.15;2.50;;;;;;;;;;5037841;28;20213;-77
2021/10/06 08:32:16;;;;;;;4.57;2.05;;;;;;;;;;5045254;28;20197;-77
2021/10/06 08:34:42;;;;;;;4.95;2.58;;;;;;;;;;5031300;28;20189;-77
2021/10/06 08:37:07;;;;;;;4.07;2.00;;;;;;;;;;5042363;28;20558;-77
2021/10/06 08:39:33;;;;;;;6.38;2.50;;;;;;;;;;5033384;28;20181;-76
2021/10/06 08:41:58;;;;;;;4.97;1.88;;;;;;;;;;5046469;28;20536;-76
2021/10/06 08:44:30;;;;;;;5.13;1.88;;;;;;;;;;5036033;28;20185;-78
2021/10/06 08:46:56;;;;;;;3.40;1.70;;;;;;;;;;5044805;28;20217;-76
2021/10/06 08:49:21;;;;;;;4.95;2.17;;;;;;;;;;5033698;28;20206;-76
2021/10/06 08:51:46;;;;;;;4.97;2.03;;;;;;;;;;5044239;28;20181;-76
2021/10/06 08:54:13;;;;;;;5.32;2.03;;;;;;;;;;5034212;28;20272;-77
2021/10/06 08:56:38;;;;;;;5.75;2.17;;;;;;;;;;5042128;28;20197;-76
2021/10/06 08:59:04;;;;;;;2.63;1.75;;;;;;;;;;5044636;28;20177;-77
2021/10/06 09:01:30;;;;;;;3.55;1.90;;;;;;;;;;5035840;28;20230;-76
2021/10/06 09:04:03;;;;;;;4.50;2.00;;;;;;;;;;5047654;28;20244;-76
2021/10/06 09:06:35;;;;;;;6.32;2.33;;;;;;;;;;5038045;28;20193;-77
2021/10/06 09:09:14;;;;;;;4.38;1.63;;;;;;;;;;5028417;28;20236;-78
2021/10/06 09:11:39;;;;;;;4.10;1.83;;;;;;;;;;5037896;28;20292;-78
2021/10/06 09:14:06;;;;;;;4.97;2.28;;;;;;;;;;5049816;28;20177;-77
2021/10/06 09:16:34;;;;;;;4.72;1.67;;;;;;;;;;5039012;28;20195;-77
2021/10/06 09:18:59;;;;;;;4.50;1.75;;;;;;;;;;5047293;28;20557;-77
2021/10/06 09:21:24;;;;;;;6.10;2.10;;;;;;;;;;5040079;28;20192;-77
2021/10/06 09:23:50;;;;;;;4.70;2.10;;;;;;;;;;5047264;28;20189;-76
2021/10/06 09:26:15;;;;;;;5.10;2.42;;;;;;;;;;5037433;28;20187;-76
2021/10/06 09:28:46;;;;;;;2.83;1.80;;;;;;;;;;5047145;28;20203;-76
2021/10/06 09:31:13;;;;;;;5.00;2.40;;;;;;;;;;5036252;28;20228;-77
2021/10/06 09:33:48;;;;;;;8.43;1.85;;;;;;;;;;5043929;28;20189;-76
2021/10/06 09:36:24;;;;;;;3.78;1.92;;;;;;;;;;5041629;28;21013;-78
2021/10/06 09:38:53;;;;;;;5.32;1.75;;;;;;;;;;5051337;28;20207;-78
2021/10/06 09:41:29;;;;;;;4.15;1.67;;;;;;;;;;5039303;28;20178;-77
2021/10/06 09:43:58;;;;;;;4.00;1.60;;;;;;;;;;5046673;28;20177;-76
2021/10/06 09:46:24;;;;;;;4.50;1.65;;;;;;;;;;5039784;28;20266;-76
2021/10/06 09:48:49;;;;;;;3.50;1.42;;;;;;;;;;5042357;28;20196;-77
2021/10/06 09:51:14;;;;;;;2.95;1.40;;;;;;;;;;5045333;28;20213;-77
2021/10/06 09:53:49;;;;;;;2.35;1.40;;;;;;;;;;5040298;28;20239;-77
2021/10/06 09:56:16;;;;;;;2.95;1.60;;;;;;;;;;5045528;28;20177;-76
2021/10/06 09:58:42;;;;;;;2.70;1.30;;;;;;;;;;5035820;28;20193;-77
2021/10/06 10:01:08;;;;;;;2.50;1.00;;;;;;;;;;5045863;28;20272;-77
2021/10/06 10:03:35;;;;;;;4.95;1.27;;;;;;;;;;5041702;28;20245;-78
2021/10/06 10:06:00;;;;;;;3.33;1.27;;;;;;;;;;5045064;28;20263;-76
2021/10/06 10:08:26;;;;;;;1.90;1.13;;;;;;;;;;5041648;28;20711;-77
2021/10/06 10:10:52;;;;;;;2.33;1.20;;;;;;;;;;5044264;28;20230;-76
2021/10/06 10:13:21;;;;;;;4.20;1.30;;;;;;;;;;5038257;28;20273;-77
2021/10/06 10:15:47;;;;;;;1.27;0.93;;;;;;;;;;5045067;28;20197;-76
2021/10/06 10:18:12;;;;;;;1.40;1.17;;;;;;;;;;5042470;28;20181;-78
2021/10/06 10:20:42;;;;;;;1.75;1.20;;;;;;;;;;5040736;28;20267;-77
2021/10/06 10:23:12;;;;;;;1.42;0.80;;;;;;;;;;5050322;28;20579;-76
2021/10/06 10:25:44;;;;;;;2.63;1.08;;;;;;;;;;5036182;28;20189;-78
2021/10/06 10:28:17;;;;;;;3.17;1.20;;;;;;;;;;5050912;28;20192;-77
2021/10/06 10:30:55;;;;;;;4.53;1.30;;;;;;;;;;5034755;28;20491;-77
2021/10/06 10:33:45;;;;;;;1.83;1.13;;;;;;;;;;5048464;28;20268;-77
2021/10/06 10:36:29;;;;;;;3.17;1.30;;;;;;;;;;5041643;28;20189;-78
2021/10/06 10:38:55;;;;;;;1.40;1.30;;;;;;;;;;5046446;28;20193;-77
2021/10/06 10:41:43;;;;;;;1.58;1.33;;;;;;;;;;5033186;28;20190;-78
2021/10/06 10:44:10;;;;;;;1.60;1.20;;;;;;;;;;5043361;28;20185;-78
2021/10/06 10:46:59;;;;;;;3.45;1.60;;;;;;;;;;5039215;28;20391;-77
2021/10/06 10:49:25;;;;;;;2.22;1.58;;;;;;;;;;5041843;28;20179;-78
2021/10/06 10:51:59;;;;;;;3.22;1.67;;;;;;;;;;5042289;28;20251;-78
2021/10/06 10:54:27;;;;;;;3.63;1.98;;;;;;;;;;5045931;28;20637;-76
2021/10/06 10:56:53;;;;;;;3.80;2.05;;;;;;;;;;5040590;28;20209;-78
2021/10/06 10:59:23;;;;;;;2.60;1.75;;;;;;;;;;5041107;28;20189;-79
2021/10/06 11:01:57;;;;;;;2.80;1.70;;;;;;;;;;5034999;28;20205;-79
2021/10/06 11:04:30;;;;;;;2.60;1.73;;;;;;;;;;5050219;28;20197;-79
2021/10/06 11:07:14;;;;;;;2.90;2.00;;;;;;;;;;5032781;28;20185;-79
2021/10/06 11:09:42;;;;;;;2.17;1.90;;;;;;;;;;5042560;28;20702;-78
2021/10/06 11:12:08;;;;;;;3.60;1.90;;;;;;;;;;5032436;28;20810;-78
2021/10/06 11:14:38;;;;;;;2.50;1.50;;;;;;;;;;5042551;28;20181;-77
2021/10/06 11:17:07;;;;;;;4.57;1.95;;;;;;;;;;5030873;28;20285;-77
2021/10/06 11:19:40;;;;;;;3.42;1.88;;;;;;;;;;5050106;28;20224;-78
2021/10/06 11:22:23;;;;;;;5.03;1.90;;;;;;;;;;5031887;28;20869;-77
2021/10/06 11:25:03;;;;;;;3.55;2.15;;;;;;;;;;5034776;28;20194;-77
2021/10/06 11:27:51;;;;;;;3.42;2.00;;;;;;;;;;5032204;28;20196;-77
2021/10/06 11:30:18;;;;;;;2.65;1.80;;;;;;;;;;5041710;28;20296;-77
2021/10/06 11:32:46;;;;;;;4.25;1.63;;;;;;;;;;5037140;28;20200;-78
2021/10/06 11:35:11;;;;;;;3.15;1.50;;;;;;;;;;5041575;28;21248;-78
2021/10/06 11:37:37;;;;;;;3.75;1.60;;;;;;;;;;5038353;28;20309;-78
2021/10/06 11:40:09;;;;;;;3.67;1.42;;;;;;;;;;5041019;28;20263;-78
2021/10/06 11:42:34;;;;;;;3.15;1.50;;;;;;;;;;5034951;28;20193;-78
2021/10/06 11:44:59;;;;;;;3.03;1.60;;;;;;;;;;5038870;28;20239;-76
2021/10/06 11:47:25;;;;;;;3.85;1.75;;;;;;;;;;5035642;28;20208;-76
2021/10/06 11:49:50;;;;;;;2.53;1.40;;;;;;;;;;5035123;28;20190;-76
2021/10/06 11:52:18;;;;;;;2.05;1.17;;;;;;;;;;5038980;28;20237;-76
2021/10/06 11:54:44;;;;;;;4.72;1.80;;;;;;;;;;5032011;28;20181;-76
2021/10/06 11:57:14;;;;;;;2.92;1.58;;;;;;;;;;5038912;28;20213;-75
2021/10/06 11:59:44;;;;;;;4.05;1.55;;;;;;;;;;5033710;28;20193;-76
2021/10/06 12:02:12;;;;;;;3.20;1.65;;;;;;;;;;5036550;28;20295;-77
2021/10/06 12:04:45;;;;;;;6.95;2.20;;;;;;;;;;5031776;28;20360;-76
2021/10/06 12:07:18;;;;;;;4.03;1.98;;;;;;;;;;5038889;28;20280;-76
2021/10/06 12:09:47;;;;;;;3.58;1.80;;;;;;;;;;5032880;28;20224;-77
2021/10/06 12:12:26;;;;;;;5.13;1.70;;;;;;;;;;5039968;28;20192;-76
2021/10/06 12:14:57;;;;;;;3.17;1.58;;;;;;;;;;5028545;28;20229;-76
2021/10/06 12:17:35;;;;;;;2.78;1.92;;;;;;;;;;5040734;28;20196;-77
2021/10/06 12:20:02;;;;;;;4.60;1.60;;;;;;;;;;5031502;28;20259;-76
2021/10/06 12:22:38;;;;;;;3.85;1.48;;;;;;;;;;5041675;28;20315;-76
2021/10/06 12:25:12;;;;;;;3.20;1.85;;;;;;;;;;5032391;28;20598;-76
2021/10/06 12:27:40;;;;;;;3.88;2.20;;;;;;;;;;5041288;28;20195;-76
2021/10/06 12:30:21;;;;;;;5.70;1.90;;;;;;;;;;5037901;28;20216;-77
2021/10/06 12:32:49;;;;;;;4.57;1.58;;;;;;;;;;5041373;28;20648;-78
2021/10/06 12:35:18;;;;;;;5.60;1.63;;;;;;;;;;5034539;28;20271;-76
2021/10/06 12:37:55;;;;;;;5.57;1.33;;;;;;;;;;5038718;28;20202;-77
2021/10/06 12:40:49;;;;;;;3.70;1.65;;;;;;;;;;5029253;28;20299;-78
2021/10/06 12:43:17;;;;;;;5.38;2.15;;;;;;;;;;5039440;28;20170;-76
2021/10/06 12:46:11;;;;;;;6.22;1.48;;;;;;;;;;5031707;28;20875;-76
2021/10/06 12:48:39;;;;;;;2.50;1.20;;;;;;;;;;5036047;28;20174;-76
2021/10/06 12:51:07;;;;;;;5.18;1.38;;;;;;;;;;5032597;28;20555;-77
2021/10/06 12:53:33;;;;;;;3.90;1.30;;;;;;;;;;5035059;28;20540;-76
2021/10/06 12:55:58;;;;;;;5.65;1.42;;;;;;;;;;5031268;28;20269;-76
2021/10/06 12:58:23;;;;;;;5.15;1.73;;;;;;;;;;5038287;28;20205;-77
2021/10/06 13:00:50;;;;;;;4.07;1.48;;;;;;;;;;5037273;28;20186;-76
2021/10/06 13:03:15;;;;;;;4.15;1.48;;;;;;;;;;5031483;28;20185;-76
2021/10/06 13:05:41;;;;;;;3.53;1.20;;;;;;;;;;5039672;28;20184;-76
2021/10/06 13:08:17;;;;;;;4.57;1.30;;;;;;;;;;5025908;28;20178;-75
2021/10/06 13:10:44;;;;;;;3.72;1.30;;;;;;;;;;5033940;28;20696;-76
2021/10/06 13:13:09;;;;;;;3.15;1.30;;;;;;;;;;5033783;28;20202;-77
2021/10/06 13:15:35;;;;;;;6.18;1.27;;;;;;;;;;5041395;28;20185;-77
2021/10/06 13:18:01;;;;;;;6.60;1.30;;;;;;;;;;5027814;28;20193;-76
2021/10/06 13:20:27;;;;;;;5.25;1.52;;;;;;;;;;5040927;28;20177;-76
2021/10/06 13:22:52;;;;;;;5.22;1.58;;;;;;;;;;5032291;28;20205;-76
2021/10/06 13:25:17;;;;;;;4.03;1.77;;;;;;;;;;5036010;28;20206;-76
2021/10/06 13:27:43;;;;;;;3.47;1.27;;;;;;;;;;5030423;28;20213;-77
2021/10/06 13:30:08;;;;;;;8.90;1.90;;;;;;;;;;5038789;28;20297;-76
2021/10/06 13:32:34;;;;;;;4.10;1.27;;;;;;;;;;4338972;28;10000704;-77
2021/10/06 13:34:59;;;;;;;2.03;1.20;;;;;;;;;;5026737;28;20659;-77
2021/10/06 13:37:24;;;;;;;6.25;1.50;;;;;;;;;;5034713;28;20681;-77
2021/10/06 13:39:50;;;;;;;4.53;1.30;;;;;;;;;;5033011;28;20189;-75
2021/10/06 13:42:16;;;;;;;7.20;1.60;;;;;;;;;;5035619;28;20200;-77
2021/10/06 13:44:41;;;;;;;6.57;1.50;;;;;;;;;;5026428;28;20259;-75
2021/10/06 13:47:06;;;;;;;6.55;1.60;;;;;;;;;;5033340;28;20189;-76
2021/10/06 13:49:32;;;;;;;4.78;1.50;;;;;;;;;;5030891;28;20909;-77
2021/10/06 13:51:57;;;;;;;5.70;2.00;;;;;;;;;;5034162;28;20288;-76
2021/10/06 13:54:22;;;;;;;6.50;2.50;;;;;;;;;;5030092;28;20178;-77
2021/10/06 13:56:48;;;;;;;7.20;2.40;;;;;;;;;;5037396;28;20220;-74
2021/10/06 13:59:13;;;;;;;7.10;2.60;;;;;;;;;;5027031;28;20189;-74
2021/10/06 14:01:40;;;;;;;6.60;2.70;;;;;;;;;;5038834;28;20219;-75
2021/10/06 14:04:05;;;;;;;7.28;3.35;;;;;;;;;;5043369;28;20216;-74
2021/10/06 14:06:30;;;;;;;9.35;3.20;;;;;;;;;;5032505;28;20213;-77
2021/10/06 14:08:56;;;;;;;7.38;3.05;;;;;;;;;;5036518;28;20217;-75
2021/10/06 14:11:22;;;;;;;11.55;3.60;;;;;;;;;;5034414;28;20205;-77
2021/10/06 14:13:47;;;;;;;8.43;3.38;;;;;;;;;;5042755;28;20193;-74
2021/10/06 14:16:13;;;;;;;6.90;3.35;;;;;;;;;;5030465;28;20221;-73
2021/10/06 14:18:38;;;;;;;6.82;2.58;;;;;;;;;;5040938;28;20225;-76
2021/10/06 14:21:05;;;;;;;5.47;2.10;;;;;;;;;;5029130;28;20212;-76
2021/10/06 14:23:30;;;;;;;6.25;3.10;;;;;;;;;;5037710;28;20639;-74
2021/10/06 14:25:56;;;;;;;8.10;3.10;;;;;;;;;;5028022;28;20285;-74
2021/10/06 14:28:23;;;;;;;10.13;3.70;;;;;;;;;;5034219;28;20547;-76
2021/10/06 14:30:48;;;;;;;7.78;3.35;;;;;;;;;;5029319;28;20225;-74
2021/10/06 14:33:15;;;;;;;7.45;3.63;;;;;;;;;;5037909;28;20248;-75
2021/10/06 14:35:42;;;;;;;10.18;3.20;;;;;;;;;;5035063;28;20182;-75
2021/10/06 14:38:07;;;;;;;6.72;2.83;;;;;;;;;;5027808;28;20277;-75